Time;durP1;ratioP1;P1;durP2;ratioP2;P2;SDS_P1;SDS_P2;PMS_P1;PMS_P2;Temp;Humidity;BMP_temperature;BMP_pressure;BME280_temperature;BME280_humidity;BME280_pressure;Samples;Min_cycle;Max_cycle;Signal;HPM_P1;HPM_P2
2023/12/02 00:01:59;;;;;;;41.57;19.33;;;-0.50;99.90;;;;;;7282904;19;20276;-75
2023/12/02 00:04:25;;;;;;;47.27;21.33;;;-0.30;99.90;;;;;;7283901;19;20188;-74
2023/12/02 00:06:50;;;;;;;41.87;19.20;;;-0.10;99.90;;;;;;7283247;19;20905;-75
2023/12/02 00:09:16;;;;;;;42.07;19.17;;;0.00;99.90;;;;;;7282124;19;20191;-75
2023/12/02 00:11:42;;;;;;;48.93;19.47;;;0.00;99.90;;;;;;7284275;19;20582;-75
2023/12/02 00:14:08;;;;;;;45.83;19.57;;;-0.10;99.90;;;;;;7297985;19;20277;-75
2023/12/02 00:16:34;;;;;;;45.50;19.43;;;0.00;99.90;;;;;;7297579;19;20201;-75
2023/12/02 00:19:00;;;;;;;44.83;19.17;;;0.10;99.90;;;;;;7282108;19;20222;-75
2023/12/02 00:21:25;;;;;;;44.93;19.23;;;0.00;99.90;;;;;;7281531;19;20193;-75
2023/12/02 00:23:51;;;;;;;46.47;20.00;;;0.00;99.90;;;;;;7284111;19;20189;-75
2023/12/02 00:26:17;;;;;;;43.57;18.93;;;0.00;99.90;;;;;;7282357;19;20189;-76
2023/12/02 00:28:52;;;;;;;45.97;18.83;;;0.00;99.90;;;;;;7282418;19;20192;-74
2023/12/02 00:31:18;;;;;;;47.17;19.93;;;0.00;99.90;;;;;;7283078;19;20228;-75
2023/12/02 00:33:44;;;;;;;45.80;20.20;;;0.00;99.90;;;;;;7282067;19;20181;-75
2023/12/02 00:36:10;;;;;;;47.00;20.27;;;0.10;99.90;;;;;;7286112;19;20218;-75
2023/12/02 00:38:36;;;;;;;50.33;21.13;;;0.10;99.90;;;;;;7305098;19;20185;-75
2023/12/02 00:41:01;;;;;;;50.33;20.83;;;0.10;99.90;;;;;;7283412;19;20184;-75
2023/12/02 00:43:27;;;;;;;49.23;20.87;;;0.10;99.90;;;;;;7281607;19;20246;-74
2023/12/02 00:45:53;;;;;;;45.83;20.70;;;0.30;99.90;;;;;;7280935;19;20676;-75
2023/12/02 00:48:18;;;;;;;48.37;21.53;;;0.30;99.90;;;;;;7284131;19;20221;-74
2023/12/02 00:50:44;;;;;;;48.80;20.37;;;0.40;99.90;;;;;;7283495;19;20622;-75
2023/12/02 00:53:10;;;;;;;45.20;19.20;;;0.40;99.90;;;;;;7280223;19;20183;-75
2023/12/02 00:55:36;;;;;;;47.73;20.20;;;0.30;99.90;;;;;;7305056;19;20274;-75
2023/12/02 00:58:02;;;;;;;48.33;20.47;;;0.10;99.90;;;;;;7283618;19;20671;-75
2023/12/02 01:00:28;;;;;;;47.90;19.77;;;0.10;99.90;;;;;;7281496;19;20313;-75
2023/12/02 01:02:53;;;;;;;45.00;19.47;;;0.20;99.90;;;;;;7283074;19;20726;-76
2023/12/02 01:05:19;;;;;;;47.47;20.90;;;0.00;99.90;;;;;;7283010;19;20188;-75
2023/12/02 01:07:45;;;;;;;44.77;20.23;;;-0.10;99.90;;;;;;7280672;19;20295;-75
2023/12/02 01:10:12;;;;;;;46.70;19.63;;;-0.20;99.90;;;;;;7282321;19;20216;-75
2023/12/02 01:12:39;;;;;;;47.60;20.33;;;-0.20;99.90;;;;;;7302348;19;20189;-74
2023/12/02 01:15:05;;;;;;;49.63;20.20;;;-0.10;99.90;;;;;;7281957;19;20287;-74
2023/12/02 01:17:31;;;;;;;48.87;20.67;;;0.00;99.90;;;;;;7280046;19;20184;-74
2023/12/02 01:19:57;;;;;;;48.50;20.80;;;0.10;99.90;;;;;;7280187;19;20189;-75
2023/12/02 01:22:23;;;;;;;52.50;20.23;;;0.10;99.90;;;;;;7279951;19;20301;-75
2023/12/02 01:24:48;;;;;;;47.77;20.30;;;0.10;99.90;;;;;;7280975;19;20607;-74
2023/12/02 01:27:14;;;;;;;45.27;19.57;;;0.20;99.90;;;;;;7281079;19;20188;-74
2023/12/02 01:29:40;;;;;;;50.77;20.43;;;0.20;99.90;;;;;;7280868;19;20280;-75
2023/12/02 01:32:06;;;;;;;47.33;19.80;;;0.20;99.90;;;;;;7303614;19;20177;-74
2023/12/02 01:34:31;;;;;;;49.63;20.70;;;0.30;99.90;;;;;;7279820;19;20281;-74
2023/12/02 01:36:57;;;;;;;47.50;20.57;;;0.20;99.90;;;;;;7282392;19;20500;-74
2023/12/02 01:39:23;;;;;;;48.33;19.77;;;0.20;99.90;;;;;;7279575;19;20188;-74
2023/12/02 01:41:48;;;;;;;40.47;17.87;;;0.20;99.90;;;;;;7280083;19;20188;-74
2023/12/02 01:44:14;;;;;;;46.97;18.43;;;0.30;99.90;;;;;;7282127;19;20196;-74
2023/12/02 01:46:40;;;;;;;44.30;18.27;;;0.20;99.90;;;;;;7279633;19;20525;-74
2023/12/02 01:49:08;;;;;;;43.60;18.20;;;0.30;99.90;;;;;;7300458;19;20199;-74
2023/12/02 01:51:35;;;;;;;40.70;16.50;;;0.40;99.90;;;;;;7280836;19;20195;-75
2023/12/02 01:54:01;;;;;;;44.37;17.10;;;0.50;99.90;;;;;;7279994;19;20587;-74
2023/12/02 01:56:27;;;;;;;45.00;15.33;;;0.60;99.90;;;;;;7281381;19;20189;-74
2023/12/02 01:58:53;;;;;;;43.70;16.43;;;0.50;99.90;;;;;;7282147;19;20196;-74
2023/12/02 02:01:19;;;;;;;42.17;16.53;;;0.10;99.90;;;;;;7279223;19;20185;-74
2023/12/02 02:03:49;;;;;;;37.87;14.90;;;0.10;99.90;;;;;;7282228;19;20205;-74
2023/12/02 02:06:14;;;;;;;36.53;15.80;;;0.00;99.90;;;;;;7280176;19;20185;-76
2023/12/02 02:08:40;;;;;;;38.30;15.40;;;0.00;99.90;;;;;;7280714;19;20223;-74
2023/12/02 02:11:06;;;;;;;37.90;15.40;;;0.10;99.90;;;;;;7301146;19;20188;-74
2023/12/02 02:13:33;;;;;;;41.80;16.50;;;0.00;99.90;;;;;;7280185;19;20192;-74
2023/12/02 02:15:59;;;;;;;37.60;15.17;;;0.00;99.90;;;;;;7279777;19;20203;-75
2023/12/02 02:18:24;;;;;;;40.10;15.90;;;0.00;99.90;;;;;;7282427;19;20188;-74
2023/12/02 02:20:52;;;;;;;42.37;16.43;;;0.20;99.90;;;;;;7278656;19;20527;-74
2023/12/02 02:23:19;;;;;;;39.60;15.20;;;0.20;99.90;;;;;;7279197;19;20195;-74
2023/12/02 02:25:45;;;;;;;40.97;16.77;;;0.30;99.90;;;;;;7280127;19;20177;-75
2023/12/02 02:28:11;;;;;;;40.47;15.87;;;0.20;99.90;;;;;;7278543;19;20862;-74
2023/12/02 02:30:37;;;;;;;42.13;16.47;;;0.20;99.90;;;;;;7302305;19;20181;-74
2023/12/02 02:33:03;;;;;;;41.53;15.70;;;0.10;99.90;;;;;;7278795;19;20212;-74
2023/12/02 02:35:30;;;;;;;37.73;15.13;;;0.00;99.90;;;;;;7280914;19;20780;-74
2023/12/02 02:37:56;;;;;;;41.57;16.37;;;0.00;99.90;;;;;;7280776;19;20249;-75
2023/12/02 02:40:22;;;;;;;37.67;15.83;;;-0.20;99.90;;;;;;7280310;19;20251;-74
2023/12/02 02:42:47;;;;;;;39.00;15.77;;;-0.30;99.90;;;;;;7280961;19;20189;-74
2023/12/02 02:45:13;;;;;;;42.97;15.50;;;-0.40;99.90;;;;;;7280512;19;20188;-75
2023/12/02 02:47:39;;;;;;;37.20;15.40;;;-0.40;99.90;;;;;;7288672;19;20785;-74
2023/12/02 02:50:05;;;;;;;42.27;16.03;;;-0.20;99.90;;;;;;7295895;19;20618;-75
2023/12/02 02:52:31;;;;;;;36.83;14.90;;;-0.20;99.90;;;;;;7279419;19;20559;-74
2023/12/02 02:54:57;;;;;;;42.50;15.90;;;-0.20;99.90;;;;;;7278912;19;20305;-75
2023/12/02 02:57:22;;;;;;;40.80;15.77;;;-0.30;99.90;;;;;;7280233;19;20197;-75
2023/12/02 02:59:48;;;;;;;43.73;15.97;;;-0.30;99.90;;;;;;7279913;19;20260;-74
2023/12/02 03:02:14;;;;;;;39.30;15.30;;;-0.40;99.90;;;;;;7276980;19;20640;-74
2023/12/02 03:04:40;;;;;;;40.90;16.07;;;-0.60;99.90;;;;;;7282596;19;20248;-75
2023/12/02 03:07:05;;;;;;;42.67;16.23;;;-0.70;99.90;;;;;;7300342;19;20225;-74
2023/12/02 03:09:31;;;;;;;40.83;15.87;;;-0.60;99.90;;;;;;7278560;19;20192;-74
2023/12/02 03:11:57;;;;;;;45.17;16.60;;;-0.50;99.90;;;;;;7276799;19;20193;-74
2023/12/02 03:14:22;;;;;;;44.13;16.23;;;-0.30;99.90;;;;;;7278591;19;20534;-74
2023/12/02 03:16:48;;;;;;;42.07;17.07;;;-0.20;99.90;;;;;;7278159;19;20181;-74
2023/12/02 03:19:14;;;;;;;41.53;16.43;;;-0.20;99.90;;;;;;7278110;19;20648;-74
2023/12/02 03:21:40;;;;;;;45.97;17.97;;;-0.30;99.90;;;;;;7278639;19;20213;-76
2023/12/02 03:24:06;;;;;;;46.90;17.67;;;-0.30;99.90;;;;;;7297147;19;20711;-75
2023/12/02 03:26:36;;;;;;;46.93;18.30;;;-0.20;99.90;;;;;;7275603;19;20189;-74
2023/12/02 03:29:03;;;;;;;43.37;17.67;;;-0.10;99.90;;;;;;7276326;19;20225;-74
2023/12/02 03:31:28;;;;;;;47.37;17.67;;;0.00;99.90;;;;;;7277401;19;20331;-75
2023/12/02 03:33:54;;;;;;;43.83;17.60;;;0.10;99.90;;;;;;7276012;19;20742;-74
2023/12/02 03:36:20;;;;;;;45.17;17.27;;;0.20;99.90;;;;;;7280296;19;20217;-74
2023/12/02 03:38:46;;;;;;;42.20;16.00;;;0.10;99.90;;;;;;7275403;19;20206;-75
2023/12/02 03:41:12;;;;;;;44.47;16.17;;;0.10;99.90;;;;;;7278480;19;20260;-75
2023/12/02 03:43:37;;;;;;;42.50;16.43;;;0.10;99.90;;;;;;7297957;19;20184;-75
2023/12/02 03:46:03;;;;;;;43.03;17.27;;;0.10;99.90;;;;;;7278794;19;20184;-74
2023/12/02 03:48:29;;;;;;;46.43;17.10;;;0.10;99.90;;;;;;7275832;19;20996;-75
2023/12/02 03:50:55;;;;;;;45.63;16.30;;;0.20;99.90;;;;;;7279591;19;20305;-74
2023/12/02 03:53:20;;;;;;;42.97;18.03;;;0.10;99.90;;;;;;7277595;19;20210;-75
2023/12/02 03:55:46;;;;;;;44.23;16.83;;;0.00;99.90;;;;;;7274947;19;20817;-75
2023/12/02 03:58:12;;;;;;;45.03;17.23;;;0.00;99.90;;;;;;7274281;19;20204;-75
2023/12/02 04:00:37;;;;;;;48.17;17.87;;;-0.10;99.90;;;;;;7299309;19;20195;-75
2023/12/02 04:03:03;;;;;;;41.30;16.50;;;-0.10;99.90;;;;;;7276756;19;20685;-75
2023/12/02 04:05:29;;;;;;;47.50;18.23;;;-0.10;99.90;;;;;;7276388;19;20185;-75
2023/12/02 04:07:55;;;;;;;42.43;16.10;;;-0.10;99.90;;;;;;7273983;19;20739;-74
2023/12/02 04:10:20;;;;;;;46.77;18.40;;;0.00;99.90;;;;;;7277504;19;20181;-75
2023/12/02 04:12:46;;;;;;;44.50;17.87;;;0.10;99.90;;;;;;7275971;19;20248;-74
2023/12/02 04:15:12;;;;;;;43.20;15.97;;;0.20;99.90;;;;;;7278597;19;20344;-75
2023/12/02 04:17:38;;;;;;;40.33;16.23;;;0.20;99.90;;;;;;7297784;19;20639;-75
2023/12/02 04:20:08;;;;;;;44.47;15.87;;;0.10;99.90;;;;;;7276702;19;20185;-75
2023/12/02 04:22:38;;;;;;;44.77;17.13;;;0.10;99.90;;;;;;7277618;19;20185;-76
2023/12/02 04:25:05;;;;;;;45.93;17.37;;;0.20;99.90;;;;;;7275715;19;20188;-75
2023/12/02 04:27:31;;;;;;;50.20;18.07;;;0.20;99.90;;;;;;7274017;19;20248;-75
2023/12/02 04:29:57;;;;;;;41.37;16.60;;;0.20;99.90;;;;;;7276862;19;20240;-75
2023/12/02 04:32:23;;;;;;;40.90;16.67;;;0.30;99.90;;;;;;7276669;19;20260;-75
2023/12/02 04:34:50;;;;;;;44.47;17.27;;;0.40;99.90;;;;;;7276568;19;20188;-75
2023/12/02 04:37:16;;;;;;;43.23;16.27;;;0.40;99.90;;;;;;7282963;19;20297;-75
2023/12/02 04:39:42;;;;;;;46.53;17.23;;;0.50;99.90;;;;;;7282851;19;20658;-74
2023/12/02 04:42:08;;;;;;;40.60;16.10;;;0.40;99.90;;;;;;7303775;19;20197;-74
2023/12/02 04:44:35;;;;;;;38.80;15.47;;;0.40;99.90;;;;;;7283726;19;20185;-75
2023/12/02 04:47:01;;;;;;;44.13;17.33;;;0.30;99.90;;;;;;7281355;19;20192;-75
2023/12/02 04:49:27;;;;;;;43.13;17.10;;;0.30;99.90;;;;;;7281851;19;20187;-75
2023/12/02 04:51:52;;;;;;;39.73;16.33;;;0.30;99.90;;;;;;7283563;19;20663;-76
2023/12/02 04:54:19;;;;;;;42.17;15.70;;;0.40;99.90;;;;;;7281109;19;20189;-75
2023/12/02 04:56:45;;;;;;;42.90;17.20;;;0.40;99.90;;;;;;7282475;19;20329;-75
2023/12/02 04:59:11;;;;;;;40.40;17.07;;;0.30;99.90;;;;;;7282339;19;20189;-74
2023/12/02 05:01:38;;;;;;;46.07;16.53;;;0.40;99.90;;;;;;7302499;19;20189;-76
2023/12/02 05:04:05;;;;;;;39.60;16.80;;;0.50;99.90;;;;;;7283811;19;20304;-75
2023/12/02 05:06:31;;;;;;;44.50;17.03;;;0.50;99.90;;;;;;7279853;19;20212;-75
2023/12/02 05:08:57;;;;;;;46.70;16.90;;;0.40;99.90;;;;;;7282667;19;20192;-75
2023/12/02 05:11:23;;;;;;;41.87;17.27;;;0.50;99.90;;;;;;7282978;19;20216;-75
2023/12/02 05:13:50;;;;;;;43.70;16.50;;;0.40;99.90;;;;;;7280815;19;20310;-75
2023/12/02 05:16:16;;;;;;;41.73;17.67;;;0.40;99.90;;;;;;7281604;19;20199;-75
2023/12/02 05:18:42;;;;;;;42.13;17.10;;;0.40;99.90;;;;;;7281328;19;20181;-74
2023/12/02 05:21:12;;;;;;;43.73;17.43;;;0.40;99.90;;;;;;7302637;19;20641;-74
2023/12/02 05:23:40;;;;;;;42.90;17.20;;;0.30;99.90;;;;;;7282068;19;20181;-75
2023/12/02 05:26:06;;;;;;;38.07;16.20;;;0.30;99.90;;;;;;7282785;19;20254;-75
2023/12/02 05:28:32;;;;;;;41.27;17.20;;;0.20;99.90;;;;;;7278215;19;20181;-74
2023/12/02 05:30:58;;;;;;;43.27;17.70;;;0.10;99.90;;;;;;7282053;19;20264;-75
2023/12/02 05:33:24;;;;;;;43.57;17.43;;;0.00;99.90;;;;;;7279714;19;20237;-74
2023/12/02 05:35:50;;;;;;;44.97;18.00;;;0.00;99.90;;;;;;7282030;19;20192;-74
2023/12/02 05:38:16;;;;;;;44.60;16.77;;;0.00;99.90;;;;;;7282423;19;20184;-74
2023/12/02 05:40:42;;;;;;;42.30;16.53;;;-0.10;99.90;;;;;;7283794;19;20192;-74
2023/12/02 05:43:08;;;;;;;44.93;17.20;;;-0.20;99.90;;;;;;7304061;19;20248;-74
2023/12/02 05:45:34;;;;;;;41.13;17.07;;;-0.30;99.90;;;;;;7283759;19;20271;-75
2023/12/02 05:48:00;;;;;;;40.17;16.07;;;-0.40;99.90;;;;;;7280615;19;20174;-74
2023/12/02 05:50:26;;;;;;;40.30;16.50;;;-0.50;99.90;;;;;;7281400;19;20185;-75
2023/12/02 05:52:52;;;;;;;38.60;15.07;;;-0.60;99.90;;;;;;7280070;19;20185;-75
2023/12/02 05:55:18;;;;;;;44.40;15.73;;;-0.70;99.90;;;;;;7282124;19;20189;-74
2023/12/02 05:57:44;;;;;;;40.67;15.47;;;-0.70;99.90;;;;;;7278006;19;20177;-74
2023/12/02 06:00:10;;;;;;;43.70;16.37;;;-0.70;99.90;;;;;;7292662;19;20184;-78
2023/12/02 06:02:36;;;;;;;46.00;16.40;;;-0.70;99.90;;;;;;7305893;19;20189;-79
2023/12/02 06:05:02;;;;;;;40.97;16.43;;;-0.60;99.90;;;;;;7286054;19;20184;-79
2023/12/02 06:07:28;;;;;;;46.10;16.27;;;-0.50;99.90;;;;;;7283549;19;20720;-79
2023/12/02 06:09:54;;;;;;;43.57;16.10;;;-0.50;99.90;;;;;;7284412;19;20192;-79
2023/12/02 06:12:20;;;;;;;44.73;16.73;;;-0.60;99.90;;;;;;7283859;19;20289;-79
2023/12/02 06:14:46;;;;;;;43.93;17.23;;;-0.50;99.90;;;;;;7283418;19;20620;-79
2023/12/02 06:17:11;;;;;;;48.40;17.87;;;-0.30;99.90;;;;;;7284179;19;20707;-78
2023/12/02 06:19:37;;;;;;;48.07;18.50;;;-0.20;99.90;;;;;;7305673;19;20617;-79
2023/12/02 06:22:03;;;;;;;52.00;20.00;;;-0.20;99.90;;;;;;7284806;19;20272;-79
2023/12/02 06:24:29;;;;;;;47.80;19.93;;;-0.10;99.90;;;;;;7285590;19;20198;-79
2023/12/02 06:26:55;;;;;;;46.23;19.03;;;-0.10;99.90;;;;;;7283895;19;20252;-79
2023/12/02 06:29:21;;;;;;;51.97;20.87;;;0.00;99.90;;;;;;7283029;19;20188;-79
2023/12/02 06:31:50;;;;;;;62.83;25.93;;;0.20;99.90;;;;;;7283332;19;20208;-79
2023/12/02 06:34:17;;;;;;;63.33;27.53;;;0.10;99.90;;;;;;7284217;19;20181;-78
2023/12/02 06:36:44;;;;;;;48.43;22.50;;;-0.10;99.90;;;;;;7283530;19;20184;-79
2023/12/02 06:39:12;;;;;;;48.13;20.43;;;-0.30;99.90;;;;;;7300077;19;20867;-77
2023/12/02 06:41:41;;;;;;;47.97;19.73;;;-0.30;99.90;;;;;;7304426;19;20193;-78
2023/12/02 06:44:09;;;;;;;47.63;19.27;;;-0.20;99.90;;;;;;7283751;19;20264;-79
2023/12/02 06:46:35;;;;;;;49.73;19.43;;;-0.20;99.90;;;;;;7283268;19;20185;-78
2023/12/02 06:49:01;;;;;;;48.93;19.47;;;-0.10;99.90;;;;;;7285085;19;20541;-79
2023/12/02 06:51:29;;;;;;;50.67;20.20;;;0.00;99.90;;;;;;7284161;19;20189;-79
2023/12/02 06:53:58;;;;;;;48.93;17.90;;;0.00;99.90;;;;;;7283196;19;20664;-79
2023/12/02 06:56:25;;;;;;;43.47;18.40;;;0.10;99.90;;;;;;7280834;19;20193;-78
2023/12/02 06:58:52;;;;;;;49.43;18.93;;;0.20;99.90;;;;;;7285045;19;20324;-79
2023/12/02 07:01:31;;;;;;;47.30;17.13;;;0.10;99.90;;;;;;7282930;19;20197;-78
2023/12/02 07:03:58;;;;;;;47.67;18.00;;;0.00;99.90;;;;;;7285927;19;20196;-79
2023/12/02 07:06:25;;;;;;;51.87;20.23;;;0.00;99.90;;;;;;7284183;19;20200;-78
2023/12/02 07:08:52;;;;;;;52.63;20.90;;;0.00;99.90;;;;;;7278751;19;20252;-78
2023/12/02 07:11:18;;;;;;;54.17;20.33;;;0.00;99.90;;;;;;7282379;19;20189;-78
2023/12/02 07:13:44;;;;;;;47.27;19.47;;;-0.10;99.90;;;;;;7283266;19;20204;-78
2023/12/02 07:16:11;;;;;;;50.50;20.00;;;-0.20;99.90;;;;;;7304610;19;20189;-78
2023/12/02 07:18:37;;;;;;;50.83;20.10;;;-0.40;99.90;;;;;;7282172;19;20586;-79
2023/12/02 07:21:03;;;;;;;48.80;18.60;;;-0.40;99.90;;;;;;7281202;19;20203;-79
2023/12/02 07:23:29;;;;;;;52.20;20.33;;;-0.50;99.90;;;;;;7282384;19;20189;-78
2023/12/02 07:25:55;;;;;;;47.37;19.90;;;-0.70;99.90;;;;;;7282940;19;20192;-77
2023/12/02 07:28:21;;;;;;;50.00;21.30;;;-0.80;99.90;;;;;;7281563;19;20185;-79
2023/12/02 07:30:50;;;;;;;53.20;18.97;;;-0.90;99.90;;;;;;7283437;19;20189;-78
2023/12/02 07:33:18;;;;;;;46.27;19.03;;;-0.80;99.90;;;;;;7283226;19;20219;-78
2023/12/02 07:35:44;;;;;;;55.63;20.13;;;-1.10;99.90;;;;;;7282916;19;20617;-78
2023/12/02 07:38:10;;;;;;;61.57;24.20;;;-1.30;99.90;;;;;;7304655;19;20194;-78
2023/12/02 07:40:36;;;;;;;47.97;20.03;;;-1.40;99.90;;;;;;7283259;19;20177;-79
2023/12/02 07:43:03;;;;;;;49.63;21.43;;;-1.50;99.90;;;;;;7283117;19;20206;-78
2023/12/02 07:45:29;;;;;;;52.00;21.70;;;-1.50;99.90;;;;;;7280334;19;20717;-79
2023/12/02 07:47:54;;;;;;;49.37;20.43;;;-1.50;99.90;;;;;;7281268;19;20189;-79
2023/12/02 07:50:20;;;;;;;53.77;21.00;;;-1.50;99.90;;;;;;7282316;19;20189;-79
2023/12/02 07:52:46;;;;;;;49.00;19.50;;;-1.50;99.90;;;;;;7282178;19;20181;-78
2023/12/02 07:55:13;;;;;;;50.37;21.00;;;-1.40;99.90;;;;;;7290143;19;20646;-78
2023/12/02 07:57:39;;;;;;;46.80;20.23;;;-1.30;99.90;;;;;;7303980;19;20591;-79
2023/12/02 08:00:06;;;;;;;52.60;19.97;;;-1.20;99.90;;;;;;7280863;19;20173;-79
2023/12/02 08:02:37;;;;;;;51.63;21.07;;;-1.20;99.90;;;;;;7281546;19;20181;-79
2023/12/02 08:05:03;;;;;;;50.97;19.40;;;-0.90;99.90;;;;;;7286156;19;20264;-83
2023/12/02 08:07:30;;;;;;;48.93;19.77;;;-0.90;99.90;;;;;;7284291;19;20196;-79
2023/12/02 08:09:55;;;;;;;47.40;19.50;;;-0.90;99.90;;;;;;7284738;19;20697;-78
2023/12/02 08:12:21;;;;;;;46.77;19.77;;;-0.80;99.90;;;;;;7290090;19;20185;-77
2023/12/02 08:14:47;;;;;;;50.53;20.70;;;-0.60;99.90;;;;;;7290055;19;20188;-77
2023/12/02 08:17:13;;;;;;;53.07;20.67;;;-0.40;99.90;;;;;;7291084;19;20185;-76
2023/12/02 08:19:38;;;;;;;50.60;19.63;;;-0.10;99.90;;;;;;7311287;19;20903;-77
2023/12/02 08:22:04;;;;;;;50.83;20.43;;;0.10;99.90;;;;;;7288497;19;20284;-76
2023/12/02 08:24:33;;;;;;;48.47;20.57;;;0.30;99.90;;;;;;7286689;19;20198;-77
2023/12/02 08:26:59;;;;;;;58.10;20.90;;;0.50;99.90;;;;;;7287041;19;20192;-76
2023/12/02 08:29:25;;;;;;;49.83;20.40;;;0.70;99.90;;;;;;7285242;19;20200;-76
2023/12/02 08:31:51;;;;;;;52.53;20.63;;;0.80;99.90;;;;;;7284573;19;20228;-76
2023/12/02 08:34:17;;;;;;;54.57;23.13;;;1.00;99.90;;;;;;7285328;19;20246;-77
2023/12/02 08:36:43;;;;;;;48.43;21.50;;;1.10;99.90;;;;;;7289539;19;20299;-77
2023/12/02 08:39:09;;;;;;;47.90;20.07;;;1.20;99.90;;;;;;7310501;19;20263;-77
2023/12/02 08:41:36;;;;;;;46.73;20.53;;;1.20;99.90;;;;;;7285552;19;20193;-77
2023/12/02 08:44:02;;;;;;;49.00;20.80;;;1.30;99.90;;;;;;7286674;19;20206;-77
2023/12/02 08:46:28;;;;;;;48.27;21.10;;;1.30;99.90;;;;;;7285350;19;20193;-76
2023/12/02 08:48:53;;;;;;;48.57;21.53;;;1.20;99.90;;;;;;7286575;19;20189;-76
2023/12/02 08:51:19;;;;;;;49.30;20.43;;;1.30;99.90;;;;;;7286620;19;20193;-76
2023/12/02 08:53:45;;;;;;;53.57;22.33;;;1.20;99.90;;;;;;7287336;19;20203;-77
2023/12/02 08:56:11;;;;;;;48.73;21.40;;;1.20;99.90;;;;;;7309000;19;20629;-76
2023/12/02 08:58:36;;;;;;;53.00;22.83;;;1.30;99.90;;;;;;7287001;19;20194;-76
2023/12/02 09:01:04;;;;;;;50.57;21.67;;;1.30;99.90;;;;;;7283839;19;20986;-77
2023/12/02 09:03:30;;;;;;;50.03;23.03;;;1.30;99.90;;;;;;7286251;19;20193;-76
2023/12/02 09:05:56;;;;;;;51.40;21.93;;;1.30;99.90;;;;;;7283559;19;20210;-77
2023/12/02 09:08:22;;;;;;;56.37;22.80;;;1.40;99.90;;;;;;7283495;19;20660;-77
2023/12/02 09:10:48;;;;;;;54.03;21.90;;;1.40;99.90;;;;;;7287313;19;20667;-76
2023/12/02 09:13:27;;;;;;;59.90;24.23;;;1.50;99.90;;;;;;7285608;19;20177;-77
2023/12/02 09:15:53;;;;;;;56.13;23.53;;;1.50;99.90;;;;;;7285283;19;20576;-77
2023/12/02 09:18:36;;;;;;;60.17;23.57;;;1.50;99.90;;;;;;7285107;19;20185;-76
2023/12/02 09:21:02;;;;;;;52.57;22.70;;;1.50;99.90;;;;;;7282370;19;20678;-77
2023/12/02 09:23:28;;;;;;;50.93;21.23;;;1.60;99.90;;;;;;7284252;19;20208;-77
2023/12/02 09:26:01;;;;;;;51.57;21.57;;;1.60;99.90;;;;;;7285363;19;20192;-77
2023/12/02 09:28:29;;;;;;;49.10;21.10;;;1.70;99.90;;;;;;7284806;19;20188;-76
2023/12/02 09:30:58;;;;;;;50.93;22.00;;;1.70;99.90;;;;;;7286184;19;20569;-77
2023/12/02 09:33:24;;;;;;;52.37;21.77;;;1.70;99.90;;;;;;7283397;19;20189;-77
2023/12/02 09:35:55;;;;;;;49.63;22.73;;;1.70;99.90;;;;;;7284431;19;20588;-77
2023/12/02 09:38:22;;;;;;;50.67;22.03;;;1.60;99.90;;;;;;7283776;19;20194;-77
2023/12/02 09:41:24;;;;;;;50.30;21.33;;;1.70;99.90;;;;;;7283297;19;20189;-76
2023/12/02 09:43:54;;;;;;;51.27;21.43;;;1.70;99.90;;;;;;7183471;19;2004677;-76
2023/12/02 09:46:32;;;;;;;48.43;21.43;;;1.70;99.90;;;;;;7284008;19;20186;-76
2023/12/02 09:49:13;;;;;;;49.37;20.80;;;1.70;99.90;;;;;;7284154;19;20181;-76
2023/12/02 09:51:50;;;;;;;50.50;21.00;;;1.80;99.90;;;;;;7282615;19;20232;-76
2023/12/02 09:54:25;;;;;;;51.83;21.50;;;1.80;99.90;;;;;;7262630;19;20263;-76
2023/12/02 09:56:56;;;;;;;50.27;21.17;;;1.90;99.90;;;;;;7282583;19;20216;-78
2023/12/02 09:59:54;;;;;;;54.63;21.67;;;1.90;99.90;;;;;;7282208;19;20197;-77
2023/12/02 10:02:38;;;;;;;42.57;19.83;;;2.00;99.90;;;;;;7180901;19;2005080;-76
2023/12/02 10:05:10;;;;;;;48.17;21.20;;;2.00;99.90;;;;;;7284071;19;20200;-77
2023/12/02 10:08:04;;;;;;;44.10;19.70;;;2.30;99.90;;;;;;7282804;19;20260;-77
2023/12/02 10:11:10;;;;;;;38.83;18.40;;;3.70;99.90;;;;;;7179409;19;2004545;-77
2023/12/02 10:13:58;;;;;;;41.37;19.53;;;5.70;99.90;;;;;;7180042;19;2004839;-77
2023/12/02 10:16:28;;;;;;;39.67;20.40;;;6.90;99.90;;;;;;7180218;19;2004643;-76
2023/12/02 10:18:59;;;;;;;41.80;20.53;;;8.30;99.90;;;;;;7282481;19;20192;-77
2023/12/02 10:21:29;;;;;;;37.33;19.50;;;9.00;99.90;;;;;;7283167;19;20547;-77
2023/12/02 10:24:05;;;;;;;37.87;19.27;;;9.30;99.90;;;;;;7283311;19;20190;-77
2023/12/02 10:26:44;;;;;;;38.60;19.47;;;9.40;99.90;;;;;;7282167;19;20246;-77
2023/12/02 10:29:31;;;;;;;36.63;19.20;;;9.30;99.90;;;;;;7280463;19;20186;-77
2023/12/02 10:32:18;;;;;;;33.47;18.27;;;9.60;99.90;;;;;;7180149;19;2004560;-77
2023/12/02 10:35:16;;;;;;;35.27;18.57;;;9.60;99.90;;;;;;7257999;19;20573;-76
2023/12/02 10:37:43;;;;;;;46.53;23.90;;;10.20;99.90;;;;;;7274303;19;20183;-76
2023/12/02 10:40:10;;;;;;;36.80;19.30;;;10.60;99.90;;;;;;7301823;19;20187;-77
2023/12/02 10:42:56;;;;;;;36.40;19.67;;;10.20;99.90;;;;;;7281907;19;20267;-77
2023/12/02 10:45:26;;;;;;;37.80;19.90;;;11.40;99.90;;;;;;7178329;19;2004376;-77
2023/12/02 10:47:52;;;;;;;34.70;18.90;;;12.30;99.90;;;;;;7280390;19;20209;-79
2023/12/02 10:50:19;;;;;;;32.43;18.63;;;13.10;99.90;;;;;;7280149;19;20205;-77
2023/12/02 10:53:04;;;;;;;30.97;18.17;;;13.60;99.90;;;;;;7280715;19;20183;-77
2023/12/02 10:55:31;;;;;;;31.53;18.47;;;13.90;99.80;;;;;;7279479;19;20657;-77
2023/12/02 10:57:59;;;;;;;33.70;19.00;;;13.70;97.50;;;;;;7280222;19;20658;-78
2023/12/02 11:00:29;;;;;;;34.37;18.80;;;13.20;98.00;;;;;;7280586;19;20229;-78
2023/12/02 11:03:05;;;;;;;34.07;19.27;;;12.40;99.10;;;;;;7279587;19;20202;-77
2023/12/02 11:05:45;;;;;;;33.67;18.93;;;12.20;99.90;;;;;;7280125;19;20198;-77
2023/12/02 11:08:18;;;;;;;31.70;18.60;;;12.20;99.90;;;;;;7279639;19;20197;-77
2023/12/02 11:10:47;;;;;;;31.20;17.93;;;12.30;99.90;;;;;;7259197;19;20195;-76
2023/12/02 11:13:20;;;;;;;33.47;19.10;;;12.50;99.90;;;;;;7278411;19;20186;-77
2023/12/02 11:16:17;;;;;;;35.73;19.97;;;12.70;99.90;;;;;;7278507;19;20219;-77
2023/12/02 11:18:57;;;;;;;36.60;20.57;;;12.90;99.90;;;;;;7264721;19;20195;-77
2023/12/02 11:21:38;;;;;;;37.73;20.30;;;12.50;98.90;;;;;;7277929;19;20213;-77
2023/12/02 11:24:48;;;;;;;36.63;20.77;;;12.00;99.90;;;;;;7280654;19;20904;-77
2023/12/02 11:27:46;;;;;;;41.23;22.27;;;12.10;99.90;;;;;;7153152;19;2004530;-77
2023/12/02 11:30:35;;;;;;;38.57;22.20;;;12.70;99.90;;;;;;7273271;19;20193;-76
2023/12/02 11:33:12;;;;;;;34.70;19.80;;;13.10;98.70;;;;;;7279882;19;20214;-77
2023/12/02 11:35:53;;;;;;;35.97;21.17;;;12.90;99.10;;;;;;7281179;19;20186;-78
2023/12/02 11:38:19;;;;;;;36.67;20.83;;;13.00;99.60;;;;;;7176734;19;2005017;-77
2023/12/02 11:41:10;;;;;;;35.63;21.73;;;13.20;99.30;;;;;;7278429;19;20182;-77
2023/12/02 11:44:03;;;;;;;35.43;21.07;;;13.10;98.60;;;;;;7278538;19;20549;-77
2023/12/02 11:46:41;;;;;;;37.03;21.07;;;13.00;98.70;;;;;;7176702;19;2004750;-79
2023/12/02 11:49:38;;;;;;;38.20;21.53;;;13.10;98.00;;;;;;7279479;19;20197;-78
2023/12/02 11:52:29;;;;;;;35.97;20.13;;;12.60;98.90;;;;;;7175772;19;2004424;-77
2023/12/02 11:55:20;;;;;;;36.67;21.07;;;12.70;99.40;;;;;;7176450;19;2004773;-77
2023/12/02 11:58:03;;;;;;;40.53;21.77;;;13.00;98.80;;;;;;7257506;19;20206;-76
2023/12/02 12:01:09;;;;;;;34.93;20.47;;;12.50;99.10;;;;;;7278041;19;20221;-78
2023/12/02 12:03:37;;;;;;;39.20;22.27;;;12.50;98.70;;;;;;7176479;19;2006195;-78
2023/12/02 12:06:03;;;;;;;39.17;22.27;;;12.40;98.70;;;;;;7279551;19;20601;-77
2023/12/02 12:08:50;;;;;;;40.60;22.47;;;11.00;99.90;;;;;;7276518;19;20210;-77
2023/12/02 12:11:19;;;;;;;40.30;22.57;;;10.70;99.90;;;;;;7257172;19;20651;-77
2023/12/02 12:13:46;;;;;;;38.07;21.63;;;10.80;99.90;;;;;;7278186;19;20208;-77
2023/12/02 12:16:12;;;;;;;41.23;22.33;;;11.30;99.90;;;;;;7294550;19;20204;-76
2023/12/02 12:18:38;;;;;;;38.87;21.47;;;11.10;99.90;;;;;;7291551;19;20967;-77
2023/12/02 12:21:04;;;;;;;38.53;20.80;;;10.90;99.90;;;;;;7274959;19;20195;-77
2023/12/02 12:23:31;;;;;;;38.37;21.60;;;10.60;99.90;;;;;;7278695;19;20705;-77
2023/12/02 12:25:58;;;;;;;37.23;21.63;;;10.20;99.90;;;;;;7279577;19;20227;-77
2023/12/02 12:28:25;;;;;;;36.80;20.53;;;10.60;99.90;;;;;;7276410;19;20197;-77
2023/12/02 12:30:51;;;;;;;39.20;21.83;;;10.70;99.90;;;;;;7278044;19;20195;-77
2023/12/02 12:33:18;;;;;;;39.13;21.43;;;10.10;99.90;;;;;;7278326;19;20198;-77
2023/12/02 12:35:44;;;;;;;40.50;22.20;;;9.50;99.90;;;;;;7279173;19;20264;-76
2023/12/02 12:38:10;;;;;;;41.17;22.40;;;9.20;99.90;;;;;;7302941;19;20653;-76
2023/12/02 12:40:39;;;;;;;43.07;22.73;;;9.00;99.90;;;;;;7278832;19;20223;-77